Time;durP1;ratioP1;P1;durP2;ratioP2;P2;SDS_P1;SDS_P2;PMS_P1;PMS_P2;Temp;Humidity;BMP_temperature;BMP_pressure;BME280_temperature;BME280_humidity;BME280_pressure;Samples;Min_cycle;Max_cycle;Signal;HPM_P1;HPM_P2
2021/05/12 00:01:19;;;;;;;24.30;14.68;;;12.60;93.20;;;;;;5111728;28;20817;-64
2021/05/12 00:03:45;;;;;;;22.80;13.18;;;12.10;93.40;;;;;;5096988;27;20051;-64
2021/05/12 00:06:12;;;;;;;21.35;12.63;;;12.30;93.30;;;;;;5105059;28;20131;-64
2021/05/12 00:08:38;;;;;;;19.48;12.05;;;;;;;;;;5102266;27;20441;-64
2021/05/12 00:11:04;;;;;;;23.25;13.10;;;12.40;93.20;;;;;;5090170;28;20044;-62
2021/05/12 00:13:30;;;;;;;22.25;12.57;;;;;;;;;;5110395;27;20063;-63
2021/05/12 00:15:56;;;;;;;25.67;13.15;;;;;;;;;;5110070;27;20046;-63
2021/05/12 00:18:26;;;;;;;20.27;12.25;;;;;;;;;;5087302;28;20169;-62
2021/05/12 00:20:53;;;;;;;19.40;12.25;;;;;;;;;;5109713;27;20115;-63
2021/05/12 00:23:28;;;;;;;20.73;12.82;;;;;;;;;;5107407;28;20075;-63
2021/05/12 00:25:54;;;;;;;25.75;12.35;;;;;;;;;;5108475;28;20043;-63
2021/05/12 00:28:20;;;;;;;23.15;13.07;;;12.40;93.10;;;;;;5107750;27;20040;-63
2021/05/12 00:30:46;;;;;;;22.50;12.27;;;12.60;93.40;;;;;;5110342;28;20472;-63
2021/05/12 00:33:13;;;;;;;25.52;13.57;;;12.30;93.20;;;;;;5108254;27;20105;-62
2021/05/12 00:35:40;;;;;;;20.90;11.95;;;;;;;;;;5110341;28;20047;-63
2021/05/12 00:38:06;;;;;;;25.23;13.52;;;12.20;93.30;;;;;;5110303;28;20043;-63
2021/05/12 00:40:31;;;;;;;20.45;13.05;;;11.70;93.30;;;;;;5105795;28;20060;-63
2021/05/12 00:42:58;;;;;;;19.73;12.25;;;;;;;;;;5106882;28;20062;-63
2021/05/12 00:45:24;;;;;;;21.88;11.73;;;;;;;;;;5098891;28;20392;-63
2021/05/12 00:47:51;;;;;;;21.50;12.38;;;12.70;93.40;;;;;;5108592;28;20052;-63
2021/05/12 00:50:19;;;;;;;16.45;11.68;;;12.20;93.40;;;;;;5088678;28;20035;-63
2021/05/12 00:52:45;;;;;;;18.35;11.45;;;10.50;92.90;;;;;;5098890;28;20114;-63
2021/05/12 00:55:11;;;;;;;19.95;12.48;;;12.10;93.20;;;;;;5098742;28;20120;-63
2021/05/12 00:57:38;;;;;;;22.60;13.10;;;;;;;;;;5100199;28;20039;-63
2021/05/12 01:00:09;;;;;;;22.58;13.27;;;12.10;93.30;;;;;;5092606;28;20071;-63
2021/05/12 01:02:35;;;;;;;24.52;14.82;;;12.00;93.10;;;;;;5104504;27;20035;-63
2021/05/12 01:05:02;;;;;;;20.92;12.38;;;12.00;93.20;;;;;;5094966;28;20508;-63
2021/05/12 01:07:29;;;;;;;19.63;11.55;;;;;;;;;;5107396;28;20485;-63
2021/05/12 01:09:55;;;;;;;22.17;13.18;;;12.60;93.30;;;;;;5106238;28;20035;-63
2021/05/12 01:12:21;;;;;;;24.90;13.02;;;12.20;92.90;;;;;;5096303;28;20115;-63
2021/05/12 01:14:47;;;;;;;20.33;12.55;;;;;;;;;;5094315;28;20055;-63
2021/05/12 01:17:14;;;;;;;20.00;12.40;;;;;;;;;;5102767;28;20112;-63
2021/05/12 01:19:42;;;;;;;24.92;12.52;;;12.60;93.40;;;;;;5107761;28;20063;-63
2021/05/12 01:22:09;;;;;;;22.50;13.50;;;11.20;93.00;;;;;;5107589;28;20031;-63
2021/05/12 01:24:35;;;;;;;29.17;12.55;;;12.30;93.40;;;;;;5105717;28;20088;-63
2021/05/12 01:27:18;;;;;;;21.40;12.90;;;12.00;93.50;;;;;;5090816;28;20048;-63
2021/05/12 01:29:44;;;;;;;22.40;13.02;;;12.10;93.20;;;;;;5107311;28;20035;-63
2021/05/12 01:32:10;;;;;;;24.02;13.50;;;13.20;93.40;;;;;;5105739;27;20088;-63
2021/05/12 01:34:35;;;;;;;20.95;13.90;;;12.00;93.10;;;;;;5107328;28;20043;-63
2021/05/12 01:37:02;;;;;;;22.35;12.73;;;;;;;;;;5108725;28;20036;-63
2021/05/12 01:39:28;;;;;;;20.85;12.50;;;13.20;93.60;;;;;;5107934;28;20035;-63
2021/05/12 01:41:54;;;;;;;21.05;13.27;;;13.10;93.50;;;;;;5106745;28;20035;-64
2021/05/12 01:44:22;;;;;;;21.13;13.02;;;;;;;;;;5098411;28;20035;-63
2021/05/12 01:46:48;;;;;;;17.90;12.48;;;12.10;93.30;;;;;;5094808;28;20047;-63
2021/05/12 01:49:15;;;;;;;18.92;11.82;;;11.40;93.30;;;;;;5101010;28;20149;-64
2021/05/12 01:51:41;;;;;;;18.92;11.57;;;11.80;93.30;;;;;;5106518;28;20043;-64
2021/05/12 01:54:09;;;;;;;21.50;12.25;;;11.80;93.30;;;;;;5092563;28;20148;-64
2021/05/12 01:56:36;;;;;;;21.15;12.20;;;;;;;;;;5098467;28;20126;-64
2021/05/12 01:59:03;;;;;;;19.42;12.35;;;12.20;93.30;;;;;;5106755;28;20040;-64
2021/05/12 02:01:29;;;;;;;22.27;12.15;;;12.10;93.30;;;;;;5108638;28;20032;-63
2021/05/12 02:03:55;;;;;;;17.92;12.27;;;12.20;93.20;;;;;;5107483;28;20035;-64
2021/05/12 02:06:21;;;;;;;21.27;12.45;;;12.50;93.40;;;;;;5108723;28;20035;-64
2021/05/12 02:08:47;;;;;;;23.02;12.85;;;11.40;93.10;;;;;;5092868;28;20221;-64
2021/05/12 02:11:13;;;;;;;19.35;13.18;;;12.10;93.30;;;;;;5108892;28;20118;-64
2021/05/12 02:13:39;;;;;;;19.98;12.52;;;;;;;;;;5109057;28;20058;-64
2021/05/12 02:16:07;;;;;;;23.10;13.43;;;12.10;93.40;;;;;;5107799;28;20125;-64
2021/05/12 02:18:33;;;;;;;21.15;13.30;;;12.70;93.60;;;;;;5105815;28;20043;-64
2021/05/12 02:20:59;;;;;;;22.63;13.30;;;12.00;93.40;;;;;;5105193;28;20039;-64
2021/05/12 02:23:26;;;;;;;21.98;14.10;;;12.30;93.50;;;;;;5107449;28;20057;-64
2021/05/12 02:25:52;;;;;;;22.30;13.60;;;13.40;93.90;;;;;;5105484;28;20035;-64
2021/05/12 02:28:18;;;;;;;22.85;14.25;;;10.00;92.90;;;;;;5109830;28;20071;-64
2021/05/12 02:30:45;;;;;;;18.40;12.40;;;12.90;93.90;;;;;;5101218;28;20043;-64
2021/05/12 02:33:11;;;;;;;23.50;14.23;;;12.10;93.60;;;;;;5089843;28;20031;-64
2021/05/12 02:35:38;;;;;;;25.27;14.13;;;;;;;;;;5102272;28;20056;-64
2021/05/12 02:38:04;;;;;;;28.98;14.80;;;12.00;93.50;;;;;;5107381;28;20114;-64
2021/05/12 02:40:30;;;;;;;26.10;14.98;;;12.00;93.20;;;;;;5106226;28;20036;-64
2021/05/12 02:42:59;;;;;;;24.08;15.80;;;11.90;93.50;;;;;;5106882;28;20039;-64
2021/05/12 02:45:26;;;;;;;20.23;12.27;;;12.50;93.80;;;;;;5111998;28;20114;-64
2021/05/12 02:47:59;;;;;;;23.02;14.60;;;12.10;93.60;;;;;;5110427;28;20092;-64
2021/05/12 02:50:27;;;;;;;20.23;13.68;;;12.10;93.60;;;;;;5107427;27;20040;-64
2021/05/12 02:52:52;;;;;;;20.88;12.70;;;12.20;93.60;;;;;;5109485;27;20377;-64
2021/05/12 02:55:19;;;;;;;21.98;13.98;;;12.60;93.90;;;;;;5093371;28;20043;-64
2021/05/12 02:57:45;;;;;;;23.80;13.52;;;12.00;93.70;;;;;;5112719;28;20035;-64
2021/05/12 03:00:13;;;;;;;22.85;13.23;;;12.00;93.70;;;;;;5092843;28;20123;-64
2021/05/12 03:02:39;;;;;;;21.75;12.93;;;12.30;93.80;;;;;;5108972;27;20120;-64
2021/05/12 03:05:06;;;;;;;21.63;12.98;;;13.10;93.90;;;;;;5092166;27;20489;-64
2021/05/12 03:07:32;;;;;;;19.90;13.18;;;11.90;93.80;;;;;;5108558;27;20043;-64
2021/05/12 03:09:58;;;;;;;20.17;12.75;;;11.70;93.80;;;;;;5110318;27;20042;-64
2021/05/12 03:12:25;;;;;;;19.52;11.63;;;11.80;93.80;;;;;;5110352;28;20376;-64
2021/05/12 03:14:51;;;;;;;19.88;12.70;;;12.00;93.80;;;;;;5112558;27;20036;-64
2021/05/12 03:17:16;;;;;;;18.15;12.55;;;12.10;94.00;;;;;;5111821;28;20454;-64
2021/05/12 03:19:42;;;;;;;18.90;12.77;;;12.60;94.00;;;;;;5109160;28;20136;-64
2021/05/12 03:22:08;;;;;;;19.20;12.40;;;11.80;93.80;;;;;;5092708;28;20035;-64
2021/05/12 03:24:34;;;;;;;18.63;11.52;;;11.70;93.80;;;;;;5110110;28;20068;-64
2021/05/12 03:27:00;;;;;;;19.73;11.65;;;10.80;93.60;;;;;;5111042;28;20111;-64
2021/05/12 03:29:26;;;;;;;19.05;11.98;;;11.80;93.80;;;;;;5110067;28;20549;-64
2021/05/12 03:31:52;;;;;;;18.23;11.57;;;;;;;;;;5088592;28;20063;-64
2021/05/12 03:34:17;;;;;;;20.92;12.02;;;10.60;93.60;;;;;;5103177;28;20390;-64
2021/05/12 03:36:44;;;;;;;21.70;12.00;;;;;;;;;;5110784;28;20041;-64
2021/05/12 03:39:10;;;;;;;23.15;13.70;;;;;;;;;;5111493;28;20122;-64
2021/05/12 03:41:36;;;;;;;18.25;12.20;;;11.80;93.90;;;;;;5107405;28;20063;-63
2021/05/12 03:44:02;;;;;;;17.75;11.45;;;12.00;93.90;;;;;;5110538;28;20074;-64
2021/05/12 03:46:28;;;;;;;21.42;13.60;;;11.80;93.70;;;;;;5108104;27;20051;-64
2021/05/12 03:48:54;;;;;;;18.52;12.35;;;11.70;94.00;;;;;;5107517;27;20054;-64
2021/05/12 03:51:19;;;;;;;21.63;11.80;;;12.10;93.80;;;;;;5108117;27;20066;-63
2021/05/12 03:53:45;;;;;;;22.67;13.63;;;12.30;94.10;;;;;;5109750;27;20408;-64
2021/05/12 03:56:11;;;;;;;19.48;12.70;;;11.70;94.00;;;;;;5110467;28;20067;-64
2021/05/12 03:58:37;;;;;;;17.55;12.55;;;12.70;94.20;;;;;;5108053;27;20044;-64
2021/05/12 04:01:03;;;;;;;19.42;12.70;;;11.40;94.00;;;;;;5109957;28;20036;-64
2021/05/12 04:03:29;;;;;;;20.15;12.70;;;;;;;;;;5108358;28;20059;-64
2021/05/12 04:05:56;;;;;;;21.30;14.05;;;11.60;93.90;;;;;;5109731;28;20089;-63
2021/05/12 04:08:24;;;;;;;19.05;12.27;;;12.30;94.10;;;;;;5110316;28;20073;-63
2021/05/12 04:10:52;;;;;;;19.83;12.43;;;11.50;93.80;;;;;;5107270;27;20097;-64
2021/05/12 04:13:20;;;;;;;19.67;12.23;;;11.60;93.90;;;;;;5109592;27;20088;-64
2021/05/12 04:15:46;;;;;;;20.38;12.02;;;11.70;93.90;;;;;;5107141;27;20061;-64
2021/05/12 04:18:12;;;;;;;24.48;12.95;;;12.40;94.10;;;;;;5106464;28;20122;-63
2021/05/12 04:20:38;;;;;;;18.98;12.25;;;11.80;94.00;;;;;;5090148;28;20449;-64
2021/05/12 04:23:04;;;;;;;21.73;13.85;;;;;;;;;;5102771;27;20040;-64
2021/05/12 04:25:30;;;;;;;18.42;12.63;;;11.80;94.10;;;;;;5090785;28;20062;-63
2021/05/12 04:27:56;;;;;;;18.90;11.50;;;11.70;94.10;;;;;;5110358;28;20063;-64
2021/05/12 04:30:23;;;;;;;20.35;13.82;;;11.20;94.10;;;;;;5110007;27;20503;-63
2021/05/12 04:32:50;;;;;;;22.35;13.27;;;13.00;94.40;;;;;;5107535;28;20541;-64
2021/05/12 04:35:18;;;;;;;24.45;13.95;;;11.70;94.00;;;;;;5109274;28;20031;-65
2021/05/12 04:37:45;;;;;;;22.38;15.00;;;11.80;94.00;;;;;;5109920;28;20480;-64
2021/05/12 04:40:11;;;;;;;20.90;14.20;;;11.70;93.90;;;;;;5109088;27;20111;-64
2021/05/12 04:42:38;;;;;;;21.02;13.90;;;12.00;93.90;;;;;;5108855;28;20051;-64
2021/05/12 04:45:09;;;;;;;23.67;15.18;;;13.30;94.10;;;;;;5091128;28;20066;-64
2021/05/12 04:47:35;;;;;;;17.80;12.98;;;11.80;93.50;;;;;;5103000;28;20051;-64
2021/05/12 04:50:02;;;;;;;21.27;13.43;;;13.80;94.30;;;;;;5103737;28;20031;-64
2021/05/12 04:52:29;;;;;;;21.48;14.07;;;12.00;93.70;;;;;;5102564;27;20032;-65
2021/05/12 04:54:55;;;;;;;19.50;12.40;;;;;;;;;;5102219;27;20137;-64
2021/05/12 04:57:21;;;;;;;23.08;14.60;;;12.80;93.80;;;;;;5104661;28;20035;-65
2021/05/12 04:59:47;;;;;;;21.88;13.68;;;13.40;93.80;;;;;;5103445;28;20035;-64
2021/05/12 05:02:14;;;;;;;21.55;13.20;;;11.80;93.40;;;;;;5103492;28;20442;-65
2021/05/12 05:04:40;;;;;;;22.75;13.13;;;10.50;93.10;;;;;;5096869;28;20077;-63
2021/05/12 05:07:07;;;;;;;20.63;13.38;;;11.70;93.50;;;;;;5081199;28;20036;-64
2021/05/12 05:09:33;;;;;;;25.27;14.07;;;;;;;;;;5096575;28;20044;-63
2021/05/12 05:12:00;;;;;;;22.88;14.13;;;11.70;93.70;;;;;;5091438;28;20035;-65
2021/05/12 05:14:26;;;;;;;23.20;14.27;;;11.30;93.70;;;;;;5106385;27;20496;-64
2021/05/12 05:16:52;;;;;;;23.05;13.45;;;12.10;93.90;;;;;;5104174;28;20048;-63
2021/05/12 05:19:18;;;;;;;21.63;14.20;;;11.90;93.80;;;;;;5105685;28;20063;-63
2021/05/12 05:21:47;;;;;;;20.58;14.05;;;12.00;93.60;;;;;;5097995;28;20043;-64
2021/05/12 05:24:13;;;;;;;24.67;14.48;;;11.80;93.70;;;;;;5101352;28;20289;-64
2021/05/12 05:26:39;;;;;;;20.90;13.23;;;12.10;93.70;;;;;;5090669;28;20039;-63
2021/05/12 05:29:04;;;;;;;21.90;13.45;;;11.80;93.60;;;;;;5105315;28;20048;-63
2021/05/12 05:31:30;;;;;;;22.65;14.07;;;11.90;93.60;;;;;;5098868;28;20035;-63
2021/05/12 05:33:56;;;;;;;23.27;13.57;;;;;;;;;;5105496;28;20458;-63
2021/05/12 05:36:23;;;;;;;22.65;13.23;;;;;;;;;;5104636;28;20039;-63
2021/05/12 05:38:48;;;;;;;21.48;12.55;;;11.80;93.50;;;;;;5101761;28;20039;-63
2021/05/12 05:41:14;;;;;;;18.98;12.73;;;10.90;93.20;;;;;;5096470;28;20508;-62
2021/05/12 05:43:40;;;;;;;20.35;12.77;;;12.50;93.70;;;;;;5081708;28;20516;-63
2021/05/12 05:46:06;;;;;;;20.98;12.52;;;12.10;93.70;;;;;;5099504;28;20036;-63
2021/05/12 05:48:32;;;;;;;16.42;11.63;;;11.90;93.60;;;;;;5105030;28;20082;-62
2021/05/12 05:50:58;;;;;;;14.90;9.35;;;11.90;93.40;;;;;;5105711;28;20036;-63
2021/05/12 05:53:23;;;;;;;19.42;13.95;;;12.10;92.80;;;;;;5086751;28;20042;-63
2021/05/12 05:55:49;;;;;;;16.88;12.13;;;11.40;92.80;;;;;;5107565;28;20043;-63
2021/05/12 05:58:16;;;;;;;14.23;9.32;;;;;;;;;;5106141;28;20508;-63
2021/05/12 06:00:43;;;;;;;18.52;11.98;;;12.90;93.20;;;;;;5090198;28;20032;-63
2021/05/12 06:03:09;;;;;;;19.55;13.38;;;12.40;92.90;;;;;;5105213;28;20059;-63
2021/05/12 06:05:35;;;;;;;17.58;12.80;;;;;;;;;;5104730;28;20073;-63
2021/05/12 06:08:01;;;;;;;14.75;9.20;;;12.70;92.50;;;;;;5107212;28;20061;-63
2021/05/12 06:10:27;;;;;;;16.33;10.98;;;12.20;91.60;;;;;;5087837;28;20049;-63
2021/05/12 06:12:53;;;;;;;14.63;10.80;;;12.80;91.80;;;;;;5079939;28;20092;-63
2021/05/12 06:15:20;;;;;;;18.55;12.60;;;12.80;91.90;;;;;;5091223;28;20470;-63
2021/05/12 06:17:47;;;;;;;17.80;12.45;;;14.30;92.40;;;;;;5108345;28;20529;-63
2021/05/12 06:20:15;;;;;;;19.10;11.57;;;12.40;91.60;;;;;;5105319;28;20040;-63
2021/05/12 06:22:41;;;;;;;15.15;10.98;;;13.40;91.80;;;;;;5110598;27;20028;-63
2021/05/12 06:25:10;;;;;;;16.98;11.07;;;12.30;91.70;;;;;;5110132;28;20093;-63
2021/05/12 06:27:36;;;;;;;13.68;9.50;;;12.50;91.70;;;;;;5091561;28;20032;-63
2021/05/12 06:30:05;;;;;;;18.55;11.68;;;12.40;91.20;;;;;;5084109;28;20039;-63
2021/05/12 06:32:31;;;;;;;10.45;7.30;;;14.20;90.60;;;;;;5104484;28;20511;-63
2021/05/12 06:34:57;;;;;;;11.35;8.05;;;12.80;89.90;;;;;;5111837;28;20032;-63
2021/05/12 06:37:23;;;;;;;14.25;9.35;;;12.10;88.10;;;;;;5113318;27;20044;-63
2021/05/12 06:39:51;;;;;;;11.20;8.27;;;13.30;88.30;;;;;;5109356;28;20131;-63
2021/05/12 06:42:23;;;;;;;11.45;8.57;;;;;;;;;;5105166;27;20039;-63
2021/05/12 06:44:49;;;;;;;13.10;9.35;;;12.10;87.90;;;;;;5108016;28;20035;-63
2021/05/12 06:47:15;;;;;;;9.07;5.97;;;12.40;86.40;;;;;;5112086;28;20062;-63
2021/05/12 06:49:41;;;;;;;10.43;8.00;;;12.60;86.60;;;;;;5110936;27;20051;-63
2021/05/12 06:52:07;;;;;;;12.35;8.13;;;13.80;85.80;;;;;;5109150;27;20404;-63
2021/05/12 06:54:33;;;;;;;10.55;7.45;;;13.50;84.60;;;;;;5109925;28;20579;-62
2021/05/12 06:56:59;;;;;;;10.07;5.75;;;13.70;84.70;;;;;;5077087;27;20075;-63
2021/05/12 06:59:25;;;;;;;10.82;7.75;;;13.40;84.80;;;;;;5085162;28;20060;-63
2021/05/12 07:01:52;;;;;;;11.43;6.50;;;13.50;82.70;;;;;;5105564;28;20032;-63
2021/05/12 07:04:19;;;;;;;8.63;6.53;;;13.70;82.90;;;;;;5109775;27;20192;-62
2021/05/12 07:06:45;;;;;;;10.35;6.28;;;13.30;83.80;;;;;;5109621;27;20153;-62
2021/05/12 07:09:16;;;;;;;11.00;6.50;;;13.90;82.60;;;;;;5107935;28;20104;-63
2021/05/12 07:12:02;;;;;;;9.18;4.75;;;13.90;79.70;;;;;;5095678;28;20053;-63
2021/05/12 07:14:29;;;;;;;9.45;5.78;;;;;;;;;;5110267;27;20100;-62
2021/05/12 07:16:55;;;;;;;9.00;5.70;;;14.00;80.30;;;;;;5106762;28;20519;-62
2021/05/12 07:19:21;;;;;;;7.72;5.60;;;14.00;79.90;;;;;;5097781;28;20095;-63
2021/05/12 07:21:49;;;;;;;6.93;5.93;;;15.40;77.70;;;;;;5107539;27;20095;-63
2021/05/12 07:24:15;;;;;;;9.93;6.13;;;15.40;76.30;;;;;;5091428;28;20051;-63
2021/05/12 07:26:41;;;;;;;10.52;5.18;;;17.00;76.00;;;;;;5092306;28;20092;-64
2021/05/12 07:29:07;;;;;;;7.45;5.03;;;15.80;76.60;;;;;;5111234;28;20592;-64
2021/05/12 07:31:33;;;;;;;8.27;5.43;;;16.20;69.90;;;;;;5102196;27;20537;-64
2021/05/12 07:33:59;;;;;;;7.10;4.70;;;16.50;69.60;;;;;;5110660;28;20567;-64
2021/05/12 07:36:25;;;;;;;9.32;5.18;;;16.70;66.70;;;;;;5109047;28;20100;-64
2021/05/12 07:38:56;;;;;;;9.43;4.97;;;17.80;66.30;;;;;;5100870;27;20453;-64
2021/05/12 07:41:22;;;;;;;7.47;4.38;;;17.30;67.60;;;;;;5106445;28;20092;-64
2021/05/12 07:43:48;;;;;;;8.45;4.60;;;17.60;67.60;;;;;;5107724;28;20590;-65
2021/05/12 07:46:13;;;;;;;6.50;4.65;;;18.20;61.60;;;;;;5101858;27;20043;-64
2021/05/12 07:48:39;;;;;;;8.00;4.35;;;18.00;61.80;;;;;;5104748;28;20083;-64
2021/05/12 07:51:06;;;;;;;6.25;3.80;;;18.20;61.20;;;;;;5104913;28;20095;-63
2021/05/12 07:53:31;;;;;;;8.88;4.97;;;18.40;58.40;;;;;;5108978;28;20594;-64
2021/05/12 07:55:57;;;;;;;9.48;4.32;;;18.50;58.40;;;;;;5110202;28;20089;-64
2021/05/12 07:58:23;;;;;;;7.55;4.40;;;18.50;58.70;;;;;;5106434;28;20169;-64
2021/05/12 08:00:49;;;;;;;8.82;4.97;;;18.90;60.30;;;;;;5109052;28;20561;-63
2021/05/12 08:03:20;;;;;;;7.95;3.47;;;19.10;58.30;;;;;;5105637;28;20131;-63
2021/05/12 08:05:47;;;;;;;7.05;4.53;;;19.40;57.80;;;;;;5105306;28;20540;-63
2021/05/12 08:08:33;;;;;;;6.70;3.95;;;18.90;57.10;;;;;;5092771;27;20097;-64
2021/05/12 08:10:59;;;;;;;6.70;3.70;;;19.40;58.40;;;;;;5104262;28;20087;-64
2021/05/12 08:13:32;;;;;;;7.82;3.60;;;19.40;54.20;;;;;;5089571;27;20083;-63
2021/05/12 08:16:03;;;;;;;8.18;3.58;;;19.30;55.20;;;;;;5110069;28;20095;-63
2021/05/12 08:18:29;;;;;;;5.03;3.40;;;19.40;54.20;;;;;;5109242;27;20106;-63
2021/05/12 08:20:56;;;;;;;5.88;3.42;;;19.50;54.60;;;;;;5106980;27;20076;-63
2021/05/12 08:23:24;;;;;;;6.30;3.55;;;19.50;54.70;;;;;;5109204;28;20164;-63
2021/05/12 08:25:51;;;;;;;7.05;3.45;;;19.60;51.60;;;;;;5109991;27;20087;-63
2021/05/12 08:28:17;;;;;;;4.82;3.28;;;19.70;55.30;;;;;;5103552;28;20104;-63
2021/05/12 08:30:46;;;;;;;6.22;3.65;;;19.40;53.10;;;;;;5099150;28;20382;-63
2021/05/12 08:33:15;;;;;;;8.40;4.32;;;19.80;51.20;;;;;;5103354;28;20092;-63
2021/05/12 08:36:01;;;;;;;9.52;3.55;;;20.10;52.10;;;;;;5102532;28;20098;-62
2021/05/12 08:38:47;;;;;;;6.35;3.55;;;20.10;55.20;;;;;;5081709;28;20110;-63
2021/05/12 08:41:18;;;;;;;7.13;3.67;;;20.10;54.50;;;;;;5090503;28;20468;-62
2021/05/12 08:43:45;;;;;;;6.68;3.53;;;20.50;50.20;;;;;;5102592;28;20600;-63
2021/05/12 08:46:12;;;;;;;4.97;2.88;;;20.50;51.00;;;;;;5109416;28;20145;-63
2021/05/12 08:48:39;;;;;;;4.93;2.75;;;20.40;50.30;;;;;;5106234;27;20120;-63
2021/05/12 08:51:07;;;;;;;5.10;2.97;;;20.50;50.10;;;;;;5108281;27;20085;-62
2021/05/12 08:53:33;;;;;;;5.47;2.92;;;20.10;49.70;;;;;;5107077;28;20092;-62
2021/05/12 08:56:01;;;;;;;5.43;2.83;;;20.30;51.60;;;;;;5087230;28;20084;-63
2021/05/12 08:58:28;;;;;;;6.47;2.85;;;20.30;52.20;;;;;;5102857;28;20432;-63
2021/05/12 09:00:54;;;;;;;7.70;2.78;;;20.40;51.80;;;;;;5090507;27;20589;-64
2021/05/12 09:03:21;;;;;;;4.53;2.20;;;20.40;50.30;;;;;;5105497;28;20117;-63
2021/05/12 09:05:50;;;;;;;4.07;2.40;;;20.60;49.90;;;;;;5083042;28;20099;-63
2021/05/12 09:08:15;;;;;;;5.32;2.60;;;20.70;51.10;;;;;;5103850;28;20063;-64
2021/05/12 09:10:42;;;;;;;6.07;2.60;;;20.70;48.50;;;;;;5103350;28;20112;-63
2021/05/12 09:13:08;;;;;;;6.45;2.70;;;20.60;48.70;;;;;;5106446;28;20452;-63
2021/05/12 09:15:34;;;;;;;8.88;3.22;;;20.50;50.60;;;;;;5099195;28;20132;-63
2021/05/12 09:18:03;;;;;;;5.95;2.70;;;20.60;51.60;;;;;;5107830;28;20088;-63
2021/05/12 09:20:30;;;;;;;5.22;2.72;;;21.00;49.00;;;;;;5104782;27;20103;-63
2021/05/12 09:22:59;;;;;;;4.10;2.33;;;20.40;49.80;;;;;;5099211;28;20137;-63
2021/05/12 09:25:26;;;;;;;4.75;2.42;;;20.40;48.30;;;;;;5112521;27;20084;-63
2021/05/12 09:27:52;;;;;;;4.10;2.60;;;20.40;48.10;;;;;;5104071;27;20095;-63
2021/05/12 09:30:22;;;;;;;4.53;2.47;;;20.00;49.30;;;;;;5085703;28;20088;-63
2021/05/12 09:32:48;;;;;;;4.85;2.30;;;21.30;49.20;;;;;;5089956;28;20088;-62
2021/05/12 09:35:15;;;;;;;6.32;2.50;;;20.10;49.20;;;;;;5101155;27;20123;-62
2021/05/12 09:37:43;;;;;;;4.97;2.35;;;20.10;47.80;;;;;;5084936;28;20092;-63
2021/05/12 09:40:11;;;;;;;4.30;2.38;;;20.00;50.40;;;;;;5104356;28;20114;-62
2021/05/12 09:42:39;;;;;;;6.43;2.20;;;20.10;49.60;;;;;;5098529;28;20085;-63
2021/05/12 09:45:08;;;;;;;4.53;2.22;;;20.10;49.20;;;;;;5106971;28;20089;-62
2021/05/12 09:47:34;;;;;;;5.68;2.42;;;20.10;48.40;;;;;;5103863;28;20112;-63
2021/05/12 09:50:12;;;;;;;3.97;2.00;;;20.10;48.10;;;;;;5106663;28;20136;-62
2021/05/12 09:52:38;;;;;;;3.45;2.00;;;20.20;48.40;;;;;;5108071;28;20084;-62
2021/05/12 09:55:07;;;;;;;4.32;1.70;;;20.20;47.50;;;;;;5109015;28;20117;-62
2021/05/12 09:57:33;;;;;;;;;;;20.20;47.10;;;;;;5102211;28;20039;-62
2021/05/12 09:59:59;;;;;;;4.18;1.85;;;19.30;47.30;;;;;;5106913;28;19957;-62
2021/05/12 10:02:25;;;;;;;2.95;1.63;;;20.40;47.10;;;;;;5108456;28;20111;-63
2021/05/12 10:04:58;;;;;;;3.88;2.05;;;20.20;46.30;;;;;;5111276;28;20092;-63
2021/05/12 10:07:26;;;;;;;2.13;1.48;;;20.00;48.10;;;;;;5091183;28;20043;-63
2021/05/12 10:09:56;;;;;;;4.00;1.88;;;20.00;46.20;;;;;;5090554;28;20134;-64
2021/05/12 10:12:24;;;;;;;4.25;1.85;;;19.90;47.30;;;;;;5105274;28;20092;-63
2021/05/12 10:14:56;;;;;;;4.00;1.90;;;20.20;46.90;;;;;;5112561;28;20100;-63
2021/05/12 10:17:23;;;;;;;3.83;2.00;;;19.80;47.50;;;;;;5105347;28;20036;-63
2021/05/12 10:19:50;;;;;;;3.45;2.05;;;20.20;47.60;;;;;;5111000;28;20807;-63
2021/05/12 10:22:18;;;;;;;2.63;1.83;;;19.60;48.30;;;;;;5108727;28;20400;-63
2021/05/12 10:24:46;;;;;;;5.50;2.25;;;19.40;47.20;;;;;;5111050;27;20058;-63
2021/05/12 10:27:17;;;;;;;4.45;2.13;;;16.80;47.80;;;;;;5109526;28;20039;-63
2021/05/12 10:29:48;;;;;;;4.18;1.80;;;19.00;49.60;;;;;;5115767;27;20460;-64
2021/05/12 10:32:27;;;;;;;2.67;1.48;;;20.60;47.20;;;;;;5103291;28;20088;-64
2021/05/12 10:35:29;;;;;;;4.55;1.90;;;19.70;47.10;;;;;;5087652;28;20239;-64
2021/05/12 10:37:55;;;;;;;1.40;1.27;;;19.70;47.60;;;;;;5096026;28;20103;-63
2021/05/12 10:40:27;;;;;;;3.55;1.85;;;19.90;46.50;;;;;;5108455;28;20096;-65
2021/05/12 10:45:58;;;;;;;4.03;1.80;;;19.50;48.50;;;;;;5106006;28;20088;-64
2021/05/12 10:48:30;;;;;;;5.57;2.00;;;19.40;47.90;;;;;;5106762;28;20096;-64
2021/05/12 10:50:56;;;;;;;3.35;1.80;;;19.50;48.30;;;;;;5110201;28;20115;-64
2021/05/12 10:53:24;;;;;;;3.47;1.90;;;19.70;48.50;;;;;;5106258;28;20561;-63
2021/05/12 10:55:56;;;;;;;5.00;1.75;;;19.70;47.10;;;;;;5092293;28;20083;-63
2021/05/12 10:58:23;;;;;;;3.97;1.83;;;19.80;48.20;;;;;;5110984;28;20028;-63
2021/05/12 11:01:09;;;;;;;3.33;1.83;;;20.00;47.60;;;;;;5108827;28;20106;-62
2021/05/12 11:03:50;;;;;;;4.10;2.53;;;20.20;47.20;;;;;;5103200;28;20545;-63
2021/05/12 11:06:24;;;;;;;2.83;1.85;;;19.80;49.40;;;;;;5103955;28;20104;-64
2021/05/12 11:09:06;;;;;;;3.40;1.98;;;19.70;49.80;;;;;;5079938;28;20093;-63
2021/05/12 11:11:38;;;;;;;4.13;2.10;;;19.60;50.90;;;;;;5100540;28;20159;-63
2021/05/12 11:14:20;;;;;;;4.45;1.80;;;19.60;51.00;;;;;;5111125;28;20561;-63
2021/05/12 11:17:02;;;;;;;4.55;2.28;;;19.60;48.80;;;;;;5110737;28;20098;-63
2021/05/12 11:19:35;;;;;;;4.60;2.08;;;19.50;50.10;;;;;;5109739;28;20575;-64
2021/05/12 11:22:24;;;;;;;5.32;2.00;;;19.40;50.20;;;;;;5102674;28;20087;-63
2021/05/12 11:24:53;;;;;;;5.40;2.42;;;19.30;50.70;;;;;;5109263;28;20156;-63
2021/05/12 11:32:24;;;;;;;5.45;2.20;;;19.00;49.90;;;;;;5109421;28;20169;-63
2021/05/12 11:34:50;;;;;;;3.15;1.85;;;19.00;49.90;;;;;;5109453;28;20138;-63
2021/05/12 11:37:20;;;;;;;4.20;1.90;;;19.00;50.60;;;;;;5099884;28;20159;-63
2021/05/12 11:39:48;;;;;;;4.53;1.67;;;18.90;51.00;;;;;;5108204;28;20083;-63
2021/05/12 11:42:29;;;;;;;4.07;1.80;;;18.90;50.90;;;;;;5110945;28;20104;-63
2021/05/12 11:45:08;;;;;;;6.85;2.30;;;17.90;50.00;;;;;;5105144;28;20459;-63
2021/05/12 11:47:36;;;;;;;4.13;1.95;;;18.70;51.00;;;;;;5107957;28;20254;-64
2021/05/12 11:50:02;;;;;;;5.32;2.38;;;18.50;51.30;;;;;;5108019;28;20151;-63
2021/05/12 11:52:32;;;;;;;3.63;1.55;;;18.50;50.40;;;;;;5109551;28;20079;-63
2021/05/12 11:55:08;;;;;;;5.55;2.35;;;18.50;51.50;;;;;;5109512;28;20082;-63
2021/05/12 11:57:35;;;;;;;4.63;1.77;;;18.40;51.80;;;;;;5097852;28;20085;-65
2021/05/12 12:00:08;;;;;;;3.85;1.80;;;18.40;53.10;;;;;;5108607;28;20224;-64
2021/05/12 12:02:35;;;;;;;4.90;2.08;;;18.50;52.20;;;;;;5110042;28;20091;-64
2021/05/12 12:05:03;;;;;;;5.18;2.20;;;18.70;53.00;;;;;;5102155;28;20109;-62
2021/05/12 12:07:30;;;;;;;5.45;1.88;;;18.90;52.10;;;;;;5109259;28;20088;-62
2021/05/12 12:10:15;;;;;;;5.70;2.20;;;18.50;49.90;;;;;;5084474;28;20070;-62
2021/05/12 12:12:56;;;;;;;4.72;1.88;;;18.70;50.60;;;;;;5091841;28;20081;-63
2021/05/12 12:15:22;;;;;;;4.75;1.90;;;18.60;51.10;;;;;;5095933;28;20157;-63
2021/05/12 12:17:51;;;;;;;5.43;2.25;;;18.80;52.60;;;;;;5098517;28;20105;-63
2021/05/12 12:20:16;;;;;;;4.78;1.90;;;18.90;52.30;;;;;;5102226;28;20230;-63
2021/05/12 12:22:50;;;;;;;6.63;2.17;;;19.00;50.40;;;;;;5106793;28;20090;-64
2021/05/12 12:25:18;;;;;;;6.53;2.03;;;19.00;51.70;;;;;;5110260;28;20095;-63
2021/05/12 12:27:45;;;;;;;3.80;1.65;;;19.30;48.70;;;;;;5096556;28;20122;-63
2021/05/12 12:30:15;;;;;;;4.75;2.20;;;19.80;47.90;;;;;;5107151;28;20087;-63
2021/05/12 12:32:41;;;;;;;5.53;2.10;;;19.80;48.20;;;;;;5101350;28;20091;-63
2021/05/12 12:35:08;;;;;;;4.03;2.08;;;19.90;48.70;;;;;;5109756;28;20107;-63
2021/05/12 12:37:37;;;;;;;4.68;2.15;;;20.00;49.30;;;;;;5109958;28;20175;-62
2021/05/12 12:40:09;;;;;;;5.43;2.30;;;20.20;49.30;;;;;;5097107;28;20115;-63
2021/05/12 12:42:50;;;;;;;6.35;2.10;;;20.30;49.60;;;;;;5105177;28;20501;-63
2021/05/12 12:45:26;;;;;;;4.65;1.83;;;20.30;49.20;;;;;;5102991;28;20077;-64
2021/05/12 12:47:56;;;;;;;4.78;2.20;;;19.70;47.10;;;;;;5110451;28;20149;-63
2021/05/12 12:50:24;;;;;;;8.98;2.83;;;19.90;48.00;;;;;;5086943;28;20128;-63
2021/05/12 12:52:51;;;;;;;6.95;2.38;;;19.70;50.00;;;;;;5105003;28;20094;-63
2021/05/12 12:55:19;;;;;;;5.68;2.42;;;19.50;49.90;;;;;;5108761;28;20084;-63
2021/05/12 12:57:47;;;;;;;4.38;2.10;;;19.40;50.40;;;;;;5098333;28;20089;-63